createdAt,value
2023-04-07T00:01:52.406Z,76.12
2023-04-07T00:04:19.588Z,73.69
2023-04-07T00:06:46.793Z,75.54
2023-04-07T00:09:13.704Z,74.52
2023-04-07T00:11:40.645Z,73.20
2023-04-07T00:14:07.785Z,75.71
2023-04-07T00:16:34.708Z,76.25
2023-04-07T00:19:01.714Z,75.59
2023-04-07T00:21:28.640Z,74.62
2023-04-07T00:23:55.851Z,74.40
2023-04-07T00:26:23.001Z,72.14
2023-04-07T00:28:50.308Z,72.97
2023-04-07T00:31:17.333Z,75.26
2023-04-07T00:33:44.384Z,74.63
2023-04-07T00:36:11.357Z,75.44
2023-04-07T00:38:38.309Z,72.98
2023-04-07T00:41:05.626Z,72.77
2023-04-07T00:43:32.697Z,73.47
2023-04-07T00:45:59.900Z,74.24
2023-04-07T00:48:27.665Z,72.96
2023-04-07T00:50:54.785Z,73.51
2023-04-07T00:53:21.745Z,74.18
2023-04-07T00:55:49.325Z,74.06
2023-04-07T00:58:16.249Z,74.80
2023-04-07T01:00:51.505Z,75.58
2023-04-07T01:03:29.648Z,73.47
2023-04-07T01:06:01.840Z,74.29
2023-04-07T01:09:05.723Z,73.44
2023-04-07T01:11:44.176Z,72.23
2023-04-07T01:14:18.683Z,72.58
2023-04-07T01:16:55.236Z,71.11
2023-04-07T01:19:40.756Z,75.02
2023-04-07T01:22:16.723Z,71.06
2023-04-07T01:25:30.467Z,70.03
2023-04-07T01:28:48.571Z,70.03
2023-04-07T01:31:16.936Z,72.59
2023-04-07T01:33:46.215Z,72.66
2023-04-07T01:36:15.570Z,73.54
2023-04-07T01:38:45.461Z,72.24
2023-04-07T01:41:14.939Z,74.00
2023-04-07T01:43:43.899Z,73.34
2023-04-07T01:46:12.062Z,73.83
2023-04-07T01:48:41.142Z,71.99
2023-04-07T01:51:08.788Z,73.13
2023-04-07T01:53:37.867Z,74.21
2023-04-07T01:56:05.731Z,71.24
2023-04-07T01:58:35.227Z,70.76
2023-04-07T02:01:03.455Z,69.52
2023-04-07T02:03:56.793Z,69.55
2023-04-07T02:06:33.227Z,72.13
2023-04-07T02:09:07.198Z,73.66
2023-04-07T02:11:35.996Z,71.36
2023-04-07T02:14:07.256Z,71.62
2023-04-07T02:16:48.340Z,71.42
2023-04-07T02:19:16.516Z,70.68
2023-04-07T02:21:45.645Z,71.13
2023-04-07T02:24:12.640Z,72.73
2023-04-07T02:26:39.649Z,72.87
2023-04-07T02:29:06.843Z,71.94
2023-04-07T02:31:33.799Z,72.98
2023-04-07T02:34:01.310Z,73.27
2023-04-07T02:36:28.298Z,73.56
2023-04-07T02:38:55.695Z,72.31
2023-04-07T02:41:22.853Z,72.25
2023-04-07T02:43:49.891Z,72.27
2023-04-07T02:46:16.883Z,72.62
2023-04-07T02:48:43.831Z,73.81
2023-04-07T02:51:10.813Z,73.13
2023-04-07T02:53:37.813Z,73.53
2023-04-07T02:56:05.790Z,73.17
2023-04-07T02:58:32.850Z,74.16
2023-04-07T03:01:00.091Z,73.41
2023-04-07T03:03:30.575Z,74.59
2023-04-07T03:06:12.052Z,73.39
2023-04-07T03:08:49.564Z,72.27
2023-04-07T03:11:16.744Z,73.30
2023-04-07T03:13:45.016Z,73.16
2023-04-07T03:16:12.353Z,73.98
2023-04-07T03:18:52.636Z,74.13
2023-04-07T03:21:21.578Z,72.26
2023-04-07T03:23:48.644Z,71.99
2023-04-07T03:26:15.684Z,73.89
2023-04-07T03:28:45.367Z,72.61
2023-04-07T03:31:13.904Z,72.50
2023-04-07T03:33:40.873Z,73.13
2023-04-07T03:36:08.487Z,73.96
2023-04-07T03:38:35.942Z,72.93
2023-04-07T03:41:05.219Z,74.45
2023-04-07T03:43:32.218Z,72.58
2023-04-07T03:46:02.015Z,70.90
2023-04-07T03:48:29.409Z,72.04
2023-04-07T03:51:05.131Z,72.77
2023-04-07T03:53:32.758Z,73.78
2023-04-07T03:56:04.722Z,71.66
2023-04-07T03:58:49.800Z,71.65
2023-04-07T04:01:27.960Z,71.64
2023-04-07T04:03:57.028Z,72.53
2023-04-07T04:06:29.666Z,72.16
2023-04-07T04:09:04.736Z,71.29
2023-04-07T04:11:35.593Z,71.97
2023-04-07T04:14:04.757Z,71.96
2023-04-07T04:16:35.330Z,71.57
2023-04-07T04:19:06.751Z,71.09
2023-04-07T04:21:33.734Z,72.56
2023-04-07T04:24:00.813Z,70.78
2023-04-07T04:26:29.761Z,71.62
2023-04-07T04:29:02.723Z,72.32
2023-04-07T04:31:30.383Z,72.72
2023-04-07T04:33:58.128Z,72.42
2023-04-07T04:36:26.209Z,71.38
2023-04-07T04:38:57.668Z,70.62
2023-04-07T04:41:24.656Z,71.17
2023-04-07T04:43:52.336Z,71.52
2023-04-07T04:46:23.278Z,70.93
2023-04-07T04:48:51.660Z,70.09
2023-04-07T04:51:20.547Z,70.11
2023-04-07T04:53:53.072Z,71.41
2023-04-07T04:56:22.125Z,71.27
2023-04-07T04:58:50.507Z,70.03
2023-04-07T05:01:32.112Z,71.64
2023-04-07T05:04:09.383Z,71.69
2023-04-07T05:06:37.705Z,70.94
2023-04-07T05:09:09.234Z,69.92
2023-04-07T05:11:43.623Z,69.49
2023-04-07T05:14:11.084Z,70.26
2023-04-07T05:16:42.982Z,70.09
2023-04-07T05:19:15.572Z,70.74
2023-04-07T05:21:42.859Z,70.40
2023-04-07T05:24:11.052Z,70.55
2023-04-07T05:26:38.469Z,70.38
2023-04-07T05:29:06.156Z,69.85
2023-04-07T05:31:35.876Z,69.64
2023-04-07T05:34:04.408Z,69.94
2023-04-07T05:36:36.436Z,71.17
2023-04-07T05:39:03.475Z,69.70
2023-04-07T05:41:30.512Z,70.32
2023-04-07T05:43:57.580Z,70.46
2023-04-07T05:46:25.674Z,71.18
2023-04-07T05:48:56.675Z,70.15
2023-04-07T05:51:26.786Z,69.84
2023-04-07T05:53:55.820Z,69.82
2023-04-07T05:56:24.644Z,70.48
2023-04-07T05:58:52.005Z,70.51
2023-04-07T06:01:19.585Z,70.30
2023-04-07T06:03:48.096Z,70.49
2023-04-07T06:06:26.944Z,70.17
2023-04-07T06:08:53.900Z,71.91
2023-04-07T06:11:23.233Z,71.18
2023-04-07T06:13:50.805Z,72.65
2023-04-07T06:16:19.527Z,72.62
2023-04-07T06:18:47.139Z,72.05
2023-04-07T06:21:14.092Z,72.58
2023-04-07T06:23:41.119Z,72.96
2023-04-07T06:26:14.414Z,71.35
2023-04-07T06:28:41.450Z,72.29
2023-04-07T06:31:09.210Z,71.68
2023-04-07T06:33:37.278Z,71.72
2023-04-07T06:36:04.473Z,72.12
2023-04-07T06:38:31.748Z,72.43
2023-04-07T06:40:58.864Z,71.14
2023-04-07T06:43:25.943Z,71.50
2023-04-07T06:46:01.506Z,73.10
2023-04-07T06:48:28.716Z,72.20
2023-04-07T06:50:55.948Z,71.42
2023-04-07T06:53:22.878Z,72.32
2023-04-07T06:55:49.825Z,73.08
2023-04-07T06:58:19.031Z,72.77
2023-04-07T07:00:46.014Z,73.46
2023-04-07T07:03:13.176Z,71.83
2023-04-07T07:05:40.418Z,71.70
2023-04-07T07:08:07.349Z,71.05
2023-04-07T07:10:34.290Z,71.30
2023-04-07T07:13:01.259Z,71.50
2023-04-07T07:15:28.182Z,71.52
2023-04-07T07:17:55.449Z,71.08
2023-04-07T07:20:23.519Z,70.92
2023-04-07T07:22:50.897Z,70.40
2023-04-07T07:25:17.951Z,70.45
2023-04-07T07:27:45.012Z,70.90
2023-04-07T07:30:12.222Z,69.86
2023-04-07T07:32:39.170Z,70.03
2023-04-07T07:35:06.486Z,69.67
2023-04-07T07:37:33.433Z,70.48
2023-04-07T07:40:00.731Z,70.17
2023-04-07T07:42:27.651Z,70.01
2023-04-07T07:44:54.577Z,70.23
2023-04-07T07:47:22.829Z,70.02
2023-04-07T07:49:49.965Z,69.68
2023-04-07T07:52:17.156Z,69.93
2023-04-07T07:54:44.362Z,70.28
2023-04-07T07:57:11.546Z,69.61
2023-04-07T07:59:40.532Z,69.77
2023-04-07T08:02:09.090Z,69.38
2023-04-07T08:04:37.138Z,69.02
2023-04-07T08:07:04.874Z,69.01
2023-04-07T08:09:34.315Z,69.17
2023-04-07T08:12:01.404Z,69.65
2023-04-07T08:14:28.441Z,69.74
2023-04-07T08:16:55.693Z,69.56
2023-04-07T08:19:22.793Z,69.43
2023-04-07T08:21:49.779Z,69.62
2023-04-07T08:24:16.811Z,70.09
2023-04-07T08:26:45.501Z,70.25
2023-04-07T08:29:12.665Z,69.82
2023-04-07T08:31:39.752Z,69.84
2023-04-07T08:34:06.754Z,69.27
2023-04-07T08:36:33.782Z,69.74
2023-04-07T08:39:02.157Z,69.50
2023-04-07T08:41:38.149Z,69.45
2023-04-07T08:44:06.731Z,69.50
2023-04-07T08:46:34.631Z,69.17
2023-04-07T08:49:03.985Z,69.59
2023-04-07T08:51:32.744Z,69.66
2023-04-07T08:54:12.851Z,69.36
2023-04-07T08:56:42.026Z,69.10
2023-04-07T08:59:13.212Z,69.09
2023-04-07T09:01:41.459Z,68.97
2023-04-07T09:04:10.791Z,68.78
2023-04-07T09:06:38.567Z,68.78
2023-04-07T09:09:08.265Z,68.78
2023-04-07T09:11:40.594Z,68.71
2023-04-07T09:14:07.899Z,68.46
2023-04-07T09:16:35.895Z,68.58
2023-04-07T09:19:02.941Z,68.82
2023-04-07T09:21:52.305Z,68.60
2023-04-07T09:24:28.330Z,68.71
2023-04-07T09:27:17.106Z,68.50
2023-04-07T09:29:47.010Z,68.85
2023-04-07T09:32:41.449Z,69.00
2023-04-07T09:35:09.360Z,68.75
2023-04-07T09:37:37.249Z,68.50
2023-04-07T09:40:04.893Z,68.85
2023-04-07T09:42:35.264Z,68.78
2023-04-07T09:45:02.978Z,68.84
2023-04-07T09:47:32.666Z,68.38
2023-04-07T09:50:06.384Z,68.70
2023-04-07T09:52:53.839Z,68.28
2023-04-07T09:55:24.373Z,68.08
2023-04-07T09:57:51.909Z,68.04
2023-04-07T10:00:19.215Z,68.41
2023-04-07T10:02:46.610Z,68.58
2023-04-07T10:05:13.938Z,68.80
2023-04-07T10:07:42.665Z,68.14
2023-04-07T10:10:10.707Z,68.06
2023-04-07T10:12:38.819Z,67.81
2023-04-07T10:15:06.933Z,67.92
2023-04-07T10:17:40.112Z,68.51
2023-04-07T10:20:09.927Z,68.93
2023-04-07T10:22:37.931Z,69.07
2023-04-07T10:25:11.445Z,68.76
2023-04-07T10:27:59.368Z,69.18
2023-04-07T10:30:32.352Z,69.27
2023-04-07T10:32:59.738Z,69.45
2023-04-07T10:35:28.315Z,69.24
2023-04-07T10:38:07.626Z,69.27
2023-04-07T10:40:36.470Z,69.01
2023-04-07T10:43:05.012Z,68.76
2023-04-07T10:45:51.800Z,69.02
2023-04-07T10:48:20.633Z,68.99
2023-04-07T10:51:14.200Z,68.36
2023-04-07T10:54:17.781Z,68.48
2023-04-07T10:57:02.784Z,67.82
2023-04-07T10:59:34.165Z,67.90
2023-04-07T11:02:13.754Z,67.78
2023-04-07T11:04:46.808Z,68.12
2023-04-07T11:07:16.313Z,69.11
2023-04-07T11:09:44.082Z,69.73
2023-04-07T11:12:23.903Z,70.02
2023-04-07T11:14:51.045Z,68.96
2023-04-07T11:17:18.157Z,68.80
2023-04-07T11:19:54.536Z,68.18
2023-04-07T11:24:51.371Z,68.18
2023-04-07T11:27:18.420Z,68.50
2023-04-07T11:29:45.584Z,69.08
2023-04-07T11:32:13.117Z,69.86
2023-04-07T11:34:40.363Z,69.76
2023-04-07T11:37:26.126Z,70.45
2023-04-07T11:39:58.842Z,69.34
2023-04-07T11:42:39.978Z,65.95
2023-04-07T11:45:17.928Z,64.63
2023-04-07T11:47:44.978Z,65.08
2023-04-07T11:50:13.830Z,65.43
2023-04-07T11:52:47.538Z,64.79
2023-04-07T11:55:22.737Z,65.10
2023-04-07T11:57:53.347Z,66.66
2023-04-07T12:00:21.053Z,67.41
2023-04-07T12:02:48.199Z,66.01
2023-04-07T12:05:15.509Z,65.82
2023-04-07T12:07:53.996Z,64.69
2023-04-07T12:10:25.536Z,64.71
2023-04-07T12:12:53.302Z,66.42
2023-04-07T12:15:20.597Z,65.43
2023-04-07T12:17:48.838Z,65.88
2023-04-07T12:20:16.672Z,64.92
2023-04-07T12:22:43.747Z,63.22
2023-04-07T12:25:10.806Z,62.69
2023-04-07T12:27:43.449Z,62.68
2023-04-07T12:30:12.804Z,62.56
2023-04-07T12:32:40.321Z,62.48
2023-04-07T12:35:07.556Z,62.75
2023-04-07T12:37:34.494Z,62.70
2023-04-07T12:40:01.605Z,62.32
2023-04-07T12:42:28.636Z,62.07
2023-04-07T12:44:56.549Z,62.11
2023-04-07T12:47:23.496Z,62.60
2023-04-07T12:49:50.529Z,62.15
2023-04-07T12:52:17.701Z,62.32
2023-04-07T12:54:45.236Z,62.73
2023-04-07T12:57:12.509Z,62.55
2023-04-07T12:59:39.729Z,62.91
2023-04-07T13:02:07.106Z,62.38
2023-04-07T13:04:35.259Z,62.47
2023-04-07T13:07:03.137Z,62.83
2023-04-07T13:09:30.200Z,62.44
2023-04-07T13:11:57.794Z,62.66
2023-04-07T13:14:25.028Z,62.96
2023-04-07T13:16:52.112Z,62.96
2023-04-07T13:19:19.173Z,62.35
2023-04-07T13:21:47.806Z,62.80
2023-04-07T13:24:15.738Z,62.66
2023-04-07T13:26:42.692Z,62.71
2023-04-07T13:29:09.645Z,63.18
2023-04-07T13:31:36.652Z,63.04
2023-04-07T13:34:03.587Z,63.06
2023-04-07T13:36:30.593Z,63.12
2023-04-07T13:38:57.591Z,62.91
2023-04-07T13:41:24.537Z,63.50
2023-04-07T13:43:51.695Z,63.34
2023-04-07T13:48:49.418Z,63.08
2023-04-07T13:51:16.908Z,63.35
2023-04-07T13:53:43.978Z,63.60
2023-04-07T13:56:10.996Z,64.02
2023-04-07T13:58:38.109Z,64.98
2023-04-07T14:01:05.164Z,65.80
2023-04-07T14:03:32.847Z,65.88
2023-04-07T14:06:01.295Z,65.85
2023-04-07T14:08:28.396Z,64.90
2023-04-07T14:10:55.510Z,66.05
2023-04-07T14:13:23.009Z,65.42
2023-04-07T14:15:50.411Z,65.05
2023-04-07T14:18:17.524Z,64.50
2023-04-07T14:20:44.626Z,64.34
2023-04-07T14:23:12.133Z,63.54
2023-04-07T14:25:39.082Z,63.33
2023-04-07T14:28:06.333Z,63.27
2023-04-07T14:30:38.667Z,63.24
2023-04-07T14:33:06.046Z,63.15
2023-04-07T14:35:33.110Z,62.61
2023-04-07T14:38:00.344Z,62.39
2023-04-07T14:40:27.267Z,62.34
2023-04-07T14:43:06.709Z,62.33
2023-04-07T14:45:35.661Z,62.98
2023-04-07T14:48:02.702Z,63.62
2023-04-07T14:50:33.636Z,63.65
2023-04-07T14:53:01.542Z,62.97
2023-04-07T14:55:28.977Z,63.12
2023-04-07T14:57:55.978Z,63.67
2023-04-07T15:00:25.206Z,63.26
2023-04-07T15:02:54.366Z,63.31
2023-04-07T15:05:22.971Z,62.89
2023-04-07T15:07:50.783Z,63.27
2023-04-07T15:10:18.488Z,62.63
2023-04-07T15:12:47.401Z,62.21
2023-04-07T15:15:15.704Z,61.72
2023-04-07T15:17:44.897Z,61.31
2023-04-07T15:20:13.013Z,61.54
2023-04-07T15:22:40.354Z,59.96
2023-04-07T15:25:07.911Z,60.99
2023-04-07T15:27:34.956Z,60.06
2023-04-07T15:30:01.915Z,59.95
2023-04-07T15:32:31.788Z,60.49
2023-04-07T15:34:58.988Z,59.95
2023-04-07T15:37:26.672Z,60.74
2023-04-07T15:39:53.667Z,60.13
2023-04-07T15:42:20.575Z,59.77
2023-04-07T15:44:47.615Z,60.19
2023-04-07T15:47:14.521Z,60.08
2023-04-07T15:49:42.211Z,60.25
2023-04-07T15:52:09.464Z,61.07
2023-04-07T15:54:36.486Z,61.21
2023-04-07T15:57:03.562Z,61.29
2023-04-07T15:59:30.960Z,60.87
2023-04-07T16:01:58.470Z,61.11
2023-04-07T16:04:25.627Z,61.66
2023-04-07T16:06:52.674Z,61.85
2023-04-07T16:09:19.591Z,62.05
2023-04-07T16:11:46.512Z,62.62
2023-04-07T16:14:13.533Z,62.29
2023-04-07T16:16:41.437Z,62.03
2023-04-07T16:19:08.468Z,62.76
2023-04-07T16:21:35.643Z,63.13
2023-04-07T16:24:02.795Z,62.80
2023-04-07T16:26:29.790Z,63.01
2023-04-07T16:28:56.749Z,62.87
2023-04-07T16:31:23.738Z,63.07
2023-04-07T16:33:51.565Z,62.85
2023-04-07T16:36:18.666Z,62.52
2023-04-07T16:38:45.762Z,62.57
2023-04-07T16:41:12.771Z,63.19
2023-04-07T16:43:39.710Z,62.47
2023-04-07T16:46:06.723Z,62.09
2023-04-07T16:48:33.755Z,62.88
2023-04-07T16:51:00.808Z,61.96
2023-04-07T16:53:27.748Z,61.84
2023-04-07T16:55:55.055Z,62.24
2023-04-07T16:58:22.111Z,62.46
2023-04-07T17:00:49.076Z,61.63
2023-04-07T17:03:16.200Z,61.88
2023-04-07T17:05:44.611Z,61.69
2023-04-07T17:08:11.797Z,61.67
2023-04-07T17:10:38.842Z,61.03
2023-04-07T17:13:06.069Z,60.88
2023-04-07T17:15:37.872Z,60.93
2023-04-07T17:18:04.921Z,60.90
2023-04-07T17:20:31.936Z,60.70
2023-04-07T17:22:58.899Z,60.79
2023-04-07T17:25:25.845Z,60.37
2023-04-07T17:27:54.938Z,60.40
2023-04-07T17:30:22.426Z,60.62
2023-04-07T17:32:50.658Z,60.52
2023-04-07T17:35:18.136Z,60.26
2023-04-07T17:37:45.961Z,60.38
2023-04-07T17:40:13.221Z,60.39
2023-04-07T17:42:40.364Z,59.84
2023-04-07T17:45:08.348Z,60.58
2023-04-07T17:47:35.782Z,59.72
2023-04-07T17:50:03.144Z,59.92
2023-04-07T17:52:30.484Z,59.75
2023-04-07T17:54:57.638Z,60.27
2023-04-07T17:57:24.814Z,60.06
2023-04-07T17:59:51.752Z,60.13
2023-04-07T18:02:18.877Z,60.25
2023-04-07T18:04:46.610Z,60.31
2023-04-07T18:07:14.781Z,60.04
2023-04-07T18:09:42.955Z,59.81
2023-04-07T18:12:13.516Z,60.30
2023-04-07T18:14:40.483Z,59.85
2023-04-07T18:17:07.552Z,59.82
2023-04-07T18:19:34.529Z,59.78
2023-04-07T18:22:01.877Z,59.78
2023-04-07T18:24:28.976Z,59.97
2023-04-07T18:26:56.890Z,59.84
2023-04-07T18:29:23.954Z,59.92
2023-04-07T18:31:51.141Z,60.00
2023-04-07T18:34:20.815Z,60.13
2023-04-07T18:36:48.874Z,59.76
2023-04-07T18:39:15.954Z,59.46
2023-04-07T18:41:45.312Z,59.91
2023-04-07T18:44:13.048Z,59.36
2023-04-07T18:46:40.120Z,59.73
2023-04-07T18:49:07.225Z,60.06
2023-04-07T18:51:35.035Z,60.38
2023-04-07T18:54:02.072Z,59.72
2023-04-07T18:56:31.237Z,59.53
2023-04-07T18:58:58.141Z,59.97
2023-04-07T19:01:25.584Z,59.79
2023-04-07T19:03:53.174Z,59.69
2023-04-07T19:06:20.518Z,59.67
2023-04-07T19:08:47.488Z,59.85
2023-04-07T19:11:14.444Z,59.45
2023-04-07T19:13:41.552Z,59.39
2023-04-07T19:16:08.666Z,59.63
2023-04-07T19:18:36.590Z,59.45
2023-04-07T19:21:03.790Z,59.46
2023-04-07T19:23:31.194Z,59.51
2023-04-07T19:25:58.353Z,59.07
2023-04-07T19:28:25.572Z,59.65
2023-04-07T19:30:52.848Z,59.64
2023-04-07T19:33:20.075Z,60.09
2023-04-07T19:35:47.100Z,59.89
2023-04-07T19:38:14.076Z,59.88
2023-04-07T19:40:41.019Z,59.84
2023-04-07T19:43:08.234Z,59.58
2023-04-07T19:45:35.234Z,59.70
2023-04-07T19:48:02.323Z,59.51
2023-04-07T19:50:29.290Z,59.88
2023-04-07T19:52:57.039Z,59.82
2023-04-07T19:55:24.306Z,59.53
2023-04-07T19:57:51.676Z,59.65
2023-04-07T20:00:18.959Z,59.56
2023-04-07T20:02:49.944Z,59.63
2023-04-07T20:05:19.359Z,59.54
2023-04-07T20:07:47.043Z,59.89
2023-04-07T20:10:13.976Z,59.75
2023-04-07T20:12:41.082Z,59.73
2023-04-07T20:15:08.845Z,59.77
2023-04-07T20:17:36.908Z,59.44
2023-04-07T20:20:05.469Z,59.51
2023-04-07T20:22:35.347Z,59.86
2023-04-07T20:25:05.594Z,59.91
2023-04-07T20:27:33.512Z,59.68
2023-04-07T20:30:01.345Z,59.77
2023-04-07T20:32:28.796Z,60.09
2023-04-07T20:34:56.066Z,59.77
2023-04-07T20:37:23.250Z,60.13
2023-04-07T20:39:50.240Z,60.10
2023-04-07T20:42:17.552Z,60.07
2023-04-07T20:44:48.304Z,60.30
2023-04-07T20:47:15.542Z,60.38
2023-04-07T20:49:43.798Z,60.14
2023-04-07T20:52:10.953Z,60.18
2023-04-07T20:54:37.890Z,60.20
2023-04-07T20:57:04.819Z,59.93
2023-04-07T20:59:32.627Z,60.29
2023-04-07T21:01:59.833Z,60.40
2023-04-07T21:04:27.345Z,59.94
2023-04-07T21:06:54.400Z,60.63
2023-04-07T21:09:21.418Z,60.33
2023-04-07T21:11:48.371Z,60.15
2023-04-07T21:14:15.573Z,60.02
2023-04-07T21:16:43.359Z,60.38
2023-04-07T21:19:11.056Z,60.48
2023-04-07T21:21:38.022Z,60.31
2023-04-07T21:24:05.371Z,60.38
2023-04-07T21:26:32.448Z,60.38
2023-04-07T21:28:59.455Z,59.87
2023-04-07T21:31:26.711Z,60.18
2023-04-07T21:33:53.720Z,60.21
2023-04-07T21:36:20.730Z,60.42
2023-04-07T21:38:48.099Z,60.49
2023-04-07T21:41:15.422Z,60.55
2023-04-07T21:43:42.366Z,60.23
2023-04-07T21:46:09.371Z,60.51
2023-04-07T21:48:36.859Z,60.71
2023-04-07T21:51:04.083Z,60.35
2023-04-07T21:53:31.903Z,60.34
2023-04-07T21:55:58.894Z,60.34
2023-04-07T21:58:25.952Z,60.47
2023-04-07T22:00:54.134Z,60.50
2023-04-07T22:03:21.950Z,60.40
2023-04-07T22:05:49.148Z,60.70
2023-04-07T22:08:16.642Z,60.36
2023-04-07T22:10:43.906Z,60.23
2023-04-07T22:13:11.056Z,60.19
2023-04-07T22:15:38.052Z,60.55
2023-04-07T22:18:05.546Z,60.35
2023-04-07T22:20:32.503Z,60.35
2023-04-07T22:22:59.447Z,60.47
2023-04-07T22:25:26.390Z,60.07
2023-04-07T22:27:53.394Z,60.18
2023-04-07T22:30:20.790Z,60.31
2023-04-07T22:32:48.097Z,60.47
2023-04-07T22:35:15.542Z,60.27
2023-04-07T22:37:42.518Z,60.66
2023-04-07T22:40:10.355Z,60.65
2023-04-07T22:42:38.020Z,60.42
2023-04-07T22:45:05.762Z,60.61
2023-04-07T22:47:32.869Z,60.37
2023-04-07T22:49:59.800Z,60.77
2023-04-07T22:52:26.752Z,60.83
2023-04-07T22:54:53.773Z,60.93
2023-04-07T22:57:21.056Z,60.79
2023-04-07T22:59:47.999Z,60.68
2023-04-07T23:02:15.090Z,60.86
2023-04-07T23:04:42.074Z,60.65
2023-04-07T23:07:08.976Z,60.77
2023-04-07T23:09:36.118Z,60.80
2023-04-07T23:12:03.049Z,60.43
2023-04-07T23:14:30.150Z,60.70
2023-04-07T23:16:57.856Z,60.83
2023-04-07T23:19:24.892Z,60.73
2023-04-07T23:21:52.260Z,60.75
2023-04-07T23:24:19.389Z,60.96
2023-04-07T23:26:46.309Z,60.61
2023-04-07T23:29:13.245Z,60.82
2023-04-07T23:31:40.324Z,60.97
2023-04-07T23:34:07.352Z,60.81
2023-04-07T23:36:34.366Z,61.09
2023-04-07T23:39:02.524Z,61.26
2023-04-07T23:41:29.559Z,61.19
2023-04-07T23:43:57.031Z,60.98
2023-04-07T23:46:24.413Z,61.06
2023-04-07T23:48:51.548Z,61.06
2023-04-07T23:51:19.324Z,61.07
2023-04-07T23:53:46.323Z,60.72
2023-04-07T23:56:13.265Z,61.10
2023-04-07T23:58:40.275Z,60.81
